createdAt,value
2018-06-09T00:00:24.136Z,99.90
2018-06-09T00:02:52.266Z,99.90
2018-06-09T00:05:20.445Z,99.90
2018-06-09T00:07:48.577Z,99.90
2018-06-09T00:10:17.487Z,99.90
2018-06-09T00:12:45.614Z,99.90
2018-06-09T00:15:13.743Z,99.90
2018-06-09T00:17:41.859Z,99.90
2018-06-09T00:20:09.997Z,99.90
2018-06-09T00:22:38.132Z,99.90
2018-06-09T00:25:06.263Z,99.90
2018-06-09T00:27:34.394Z,99.90
2018-06-09T00:30:02.534Z,99.90
2018-06-09T00:32:30.653Z,99.90
2018-06-09T00:34:58.778Z,99.90
2018-06-09T00:37:26.917Z,99.90
2018-06-09T00:39:55.194Z,99.90
2018-06-09T00:42:23.302Z,99.90
2018-06-09T00:44:51.435Z,99.90
2018-06-09T00:47:19.652Z,99.90
2018-06-09T00:49:47.799Z,99.90
2018-06-09T00:52:15.923Z,99.90
2018-06-09T00:54:44.806Z,99.90
2018-06-09T00:57:13.788Z,99.90
2018-06-09T00:59:41.901Z,99.90
2018-06-09T01:02:10.390Z,99.90
2018-06-09T01:04:39.256Z,99.90
2018-06-09T01:07:08.385Z,99.90
2018-06-09T01:09:36.508Z,99.90
2018-06-09T01:12:04.651Z,99.90
2018-06-09T01:14:32.763Z,99.90
2018-06-09T01:17:02.668Z,99.90
2018-06-09T01:19:30.792Z,99.90
2018-06-09T01:21:59.181Z,99.90
2018-06-09T01:24:27.301Z,99.90
2018-06-09T01:26:57.214Z,99.90
2018-06-09T01:29:26.107Z,99.90
2018-06-09T01:31:55.227Z,99.90
2018-06-09T01:34:23.340Z,99.90
2018-06-09T01:36:53.455Z,99.90
2018-06-09T01:39:21.576Z,99.90
2018-06-09T01:41:50.475Z,99.90
2018-06-09T01:44:18.593Z,99.90
2018-06-09T01:46:46.719Z,99.90
2018-06-09T01:49:14.842Z,99.90
2018-06-09T01:51:42.980Z,99.90
2018-06-09T01:54:11.101Z,99.90
2018-06-09T01:56:39.234Z,99.90
2018-06-09T01:59:07.355Z,99.90
2018-06-09T02:01:35.519Z,99.90
2018-06-09T02:04:03.634Z,99.90
2018-06-09T02:06:31.863Z,99.90
2018-06-09T02:09:00.000Z,99.90
2018-06-09T02:11:28.126Z,99.90
2018-06-09T02:13:56.274Z,99.90
2018-06-09T02:16:24.388Z,99.90
2018-06-09T02:18:53.295Z,99.90
2018-06-09T02:21:21.430Z,99.90
2018-06-09T02:23:49.563Z,99.90
2018-06-09T02:26:17.684Z,99.90
2018-06-09T02:28:45.798Z,99.90
2018-06-09T02:31:13.920Z,99.90
2018-06-09T02:33:42.072Z,99.90
2018-06-09T02:36:10.192Z,99.90
2018-06-09T02:38:39.086Z,99.90
2018-06-09T02:41:07.966Z,99.90
2018-06-09T02:43:36.858Z,99.90
2018-06-09T02:46:07.780Z,99.90
2018-06-09T02:48:35.901Z,99.90
2018-06-09T02:51:04.040Z,99.90
2018-06-09T02:53:32.416Z,99.90
2018-06-09T02:56:00.609Z,99.90
2018-06-09T02:58:29.499Z,99.90
2018-06-09T03:00:58.406Z,99.90
2018-06-09T03:03:26.543Z,99.90
2018-06-09T03:05:54.656Z,99.90
2018-06-09T03:08:22.806Z,99.90
2018-06-09T03:10:50.923Z,99.90
2018-06-09T03:13:19.095Z,99.90
2018-06-09T03:15:48.329Z,99.90
2018-06-09T03:18:17.212Z,99.90
2018-06-09T03:20:45.325Z,99.90
2018-06-09T03:23:14.227Z,99.90
2018-06-09T03:25:42.514Z,99.90
2018-06-09T03:28:13.031Z,99.90
2018-06-09T03:30:42.543Z,99.90
2018-06-09T03:33:10.669Z,99.90
2018-06-09T03:35:38.852Z,99.90
2018-06-09T03:38:06.961Z,99.90
2018-06-09T03:40:35.995Z,99.90
2018-06-09T03:43:04.107Z,99.90
2018-06-09T03:45:33.996Z,99.90
2018-06-09T03:48:02.158Z,99.90
2018-06-09T03:50:30.361Z,99.90
2018-06-09T03:52:58.573Z,99.90
2018-06-09T03:55:30.121Z,99.90
2018-06-09T03:57:59.304Z,99.90
2018-06-09T04:00:29.240Z,99.90
2018-06-09T04:02:57.363Z,99.90
2018-06-09T04:05:25.888Z,99.90
2018-06-09T04:07:54.016Z,99.90
2018-06-09T04:10:22.142Z,99.90
2018-06-09T04:12:52.650Z,99.90
2018-06-09T04:15:20.774Z,99.90
2018-06-09T04:17:48.913Z,99.90
2018-06-09T04:20:17.039Z,99.90
2018-06-09T04:22:45.192Z,99.90
2018-06-09T04:25:13.303Z,99.90
2018-06-09T04:27:42.460Z,99.90
2018-06-09T04:30:13.095Z,99.90
2018-06-09T04:32:41.338Z,99.90
2018-06-09T04:35:09.460Z,99.00
2018-06-09T04:37:37.612Z,99.30
2018-06-09T04:40:05.818Z,98.90
2018-06-09T04:42:34.836Z,99.90
2018-06-09T04:45:03.514Z,99.90
2018-06-09T04:47:31.640Z,99.90
2018-06-09T04:50:01.734Z,99.10
2018-06-09T04:52:29.856Z,99.10
2018-06-09T04:55:08.445Z,98.70
2018-06-09T04:57:37.261Z,99.90
2018-06-09T05:00:05.388Z,99.50
2018-06-09T05:02:33.502Z,98.60
2018-06-09T05:05:01.643Z,97.00
2018-06-09T05:07:29.770Z,97.10
2018-06-09T05:09:58.657Z,96.10
2018-06-09T05:12:27.540Z,95.40
2018-06-09T05:14:55.732Z,95.40
2018-06-09T05:17:25.884Z,93.10
2018-06-09T05:19:53.992Z,93.10
2018-06-09T05:22:23.960Z,94.70
2018-06-09T05:24:52.150Z,92.80
2018-06-09T05:27:20.573Z,93.40
2018-06-09T05:29:48.694Z,91.30
2018-06-09T05:32:17.579Z,91.50
2018-06-09T05:34:46.421Z,92.40
2018-06-09T05:37:15.333Z,92.80
2018-06-09T05:39:44.220Z,93.80
2018-06-09T05:42:13.287Z,93.00
2018-06-09T05:44:41.397Z,92.70
2018-06-09T05:47:09.677Z,91.40
2018-06-09T05:49:37.780Z,92.40
2018-06-09T05:52:05.908Z,91.80
2018-06-09T05:54:34.801Z,90.00
2018-06-09T05:57:04.147Z,92.30
2018-06-09T05:59:32.276Z,92.30
2018-06-09T06:02:01.166Z,93.80
2018-06-09T06:04:29.823Z,93.80
2018-06-09T06:06:58.762Z,90.00
2018-06-09T06:09:27.657Z,91.10
2018-06-09T06:11:55.779Z,91.20
2018-06-09T06:14:24.023Z,87.50
2018-06-09T06:16:52.909Z,87.30
2018-06-09T06:19:21.780Z,88.50
2018-06-09T06:21:50.663Z,81.90
2018-06-09T06:24:20.500Z,81.00
2018-06-09T06:26:48.629Z,80.90
2018-06-09T06:29:16.744Z,84.90
2018-06-09T06:31:45.378Z,83.30
2018-06-09T06:34:13.515Z,82.80
2018-06-09T06:36:41.953Z,80.30
2018-06-09T06:39:10.893Z,76.80
2018-06-09T06:41:39.011Z,79.80
2018-06-09T06:44:07.129Z,79.90
2018-06-09T06:46:35.254Z,79.30
2018-06-09T06:49:03.376Z,81.40
2018-06-09T06:51:31.501Z,78.60
2018-06-09T06:53:59.605Z,74.40
2018-06-09T06:56:27.748Z,76.70
2018-06-09T06:58:55.869Z,79.50
2018-06-09T07:01:24.000Z,74.40
2018-06-09T07:03:52.377Z,77.70
2018-06-09T07:06:20.495Z,77.40
2018-06-09T07:08:48.611Z,74.40
2018-06-09T07:11:16.745Z,73.90
2018-06-09T07:13:44.948Z,75.30
2018-06-09T07:16:15.585Z,78.20
2018-06-09T07:18:46.636Z,73.10
2018-06-09T07:21:14.746Z,74.20
2018-06-09T07:23:42.882Z,80.30
2018-06-09T07:26:12.032Z,71.70
2018-06-09T07:28:41.069Z,72.90
2018-06-09T07:31:09.183Z,73.60
2018-06-09T07:33:37.333Z,75.20
2018-06-09T07:36:06.329Z,69.10
2018-06-09T07:38:35.213Z,68.80
2018-06-09T07:41:03.314Z,68.90
2018-06-09T07:43:31.463Z,68.30
2018-06-09T07:45:59.627Z,69.50
2018-06-09T07:48:29.534Z,66.00
2018-06-09T07:50:59.009Z,64.90
2018-06-09T07:53:28.055Z,59.30
2018-06-09T07:55:57.035Z,58.10
2018-06-09T07:58:25.186Z,58.00
2018-06-09T08:00:53.353Z,61.70
2018-06-09T08:03:21.526Z,60.30
2018-06-09T08:05:49.793Z,58.50
2018-06-09T08:08:18.426Z,58.90
2018-06-09T08:10:47.306Z,61.80
2018-06-09T08:13:15.493Z,61.70
2018-06-09T08:15:44.503Z,56.10
2018-06-09T08:18:12.627Z,56.10
2018-06-09T08:20:40.764Z,59.50
2018-06-09T08:23:09.487Z,57.80
2018-06-09T08:25:38.702Z,56.70
2018-06-09T08:28:06.831Z,54.00
2018-06-09T08:30:34.955Z,53.80
2018-06-09T08:33:03.079Z,54.80
2018-06-09T08:35:31.299Z,48.30
2018-06-09T08:37:59.421Z,49.10
2018-06-09T08:40:27.553Z,51.90
2018-06-09T08:42:55.755Z,55.70
2018-06-09T08:45:24.022Z,45.90
2018-06-09T08:47:52.928Z,54.60
2018-06-09T08:50:21.070Z,54.60
2018-06-09T08:52:50.358Z,49.10
2018-06-09T08:55:18.494Z,45.60
2018-06-09T08:57:46.614Z,46.30
2018-06-09T09:00:15.517Z,52.50
2018-06-09T09:02:43.660Z,52.70
2018-06-09T09:05:12.674Z,56.50
2018-06-09T09:07:40.796Z,49.80
2018-06-09T09:10:08.922Z,51.50
2018-06-09T09:12:37.838Z,50.80
2018-06-09T09:15:05.961Z,50.30
2018-06-09T09:17:34.105Z,52.90
2018-06-09T09:20:02.255Z,49.00
2018-06-09T09:22:30.379Z,55.00
2018-06-09T09:24:58.522Z,52.30
2018-06-09T09:27:26.754Z,48.60
2018-06-09T09:29:54.969Z,47.40
2018-06-09T09:32:24.077Z,47.20
2018-06-09T09:34:57.912Z,49.00
2018-06-09T09:37:27.625Z,48.00
2018-06-09T09:39:56.616Z,49.70
2018-06-09T09:42:24.753Z,50.20
2018-06-09T09:44:54.468Z,50.00
2018-06-09T09:47:24.512Z,50.20
2018-06-09T09:49:52.597Z,52.00
2018-06-09T09:52:20.728Z,50.60
2018-06-09T09:54:49.139Z,46.60
2018-06-09T09:57:19.080Z,47.90
2018-06-09T09:59:47.195Z,50.90
2018-06-09T10:02:16.303Z,50.20
2018-06-09T10:04:44.462Z,48.70
2018-06-09T10:07:12.718Z,46.10
2018-06-09T10:09:40.864Z,45.10
2018-06-09T10:12:09.010Z,43.30
2018-06-09T10:14:37.116Z,43.10
2018-06-09T10:17:05.448Z,47.50
2018-06-09T10:19:33.567Z,46.90
2018-06-09T10:22:02.201Z,46.30
2018-06-09T10:24:32.488Z,45.20
2018-06-09T10:27:01.366Z,43.20
2018-06-09T10:29:29.531Z,42.90
2018-06-09T10:31:59.984Z,41.70
2018-06-09T10:34:28.100Z,42.40
2018-06-09T10:36:56.325Z,43.30
2018-06-09T10:39:25.218Z,42.40
2018-06-09T10:41:53.706Z,42.40
2018-06-09T10:44:21.830Z,36.80
2018-06-09T10:46:51.051Z,39.30
2018-06-09T10:49:19.178Z,39.50
2018-06-09T10:51:47.481Z,37.00
2018-06-09T10:54:15.637Z,37.30
2018-06-09T10:56:43.779Z,34.60
2018-06-09T10:59:12.651Z,37.20
2018-06-09T11:01:41.534Z,38.20
2018-06-09T11:04:09.706Z,38.20
2018-06-09T11:06:47.769Z,32.40
2018-06-09T11:09:15.975Z,36.60
2018-06-09T11:11:44.154Z,32.30
2018-06-09T11:14:12.547Z,34.60
2018-06-09T11:16:40.666Z,34.10
2018-06-09T11:19:09.713Z,36.70
2018-06-09T11:21:37.839Z,37.70
2018-06-09T11:24:06.169Z,35.40
2018-06-09T11:26:38.893Z,35.70
2018-06-09T11:29:07.114Z,37.00
2018-06-09T11:31:40.942Z,36.00
2018-06-09T11:34:09.809Z,36.40
2018-06-09T11:36:38.903Z,36.40
2018-06-09T11:39:07.084Z,37.90
2018-06-09T11:41:35.235Z,36.20
2018-06-09T11:44:03.577Z,38.10
2018-06-09T11:46:31.831Z,35.40
2018-06-09T11:49:00.729Z,37.70
2018-06-09T11:51:28.859Z,37.90
2018-06-09T11:53:56.992Z,29.40
2018-06-09T11:56:28.329Z,34.10
2018-06-09T11:58:57.207Z,33.70
2018-06-09T12:01:26.115Z,31.20
2018-06-09T12:03:54.239Z,31.20
2018-06-09T12:06:22.378Z,32.80
2018-06-09T12:08:50.492Z,31.60
2018-06-09T12:11:18.628Z,28.60
2018-06-09T12:13:46.764Z,26.50
2018-06-09T12:16:15.018Z,27.80
2018-06-09T12:18:43.190Z,29.30
2018-06-09T12:21:11.319Z,30.50
2018-06-09T12:23:39.489Z,29.60
2018-06-09T12:26:07.737Z,28.30
2018-06-09T12:28:35.849Z,25.80
2018-06-09T12:31:03.979Z,24.20
2018-06-09T12:33:32.884Z,24.20
2018-06-09T12:36:01.019Z,24.20
2018-06-09T12:38:29.234Z,24.60
2018-06-09T12:40:57.362Z,22.90
2018-06-09T12:43:26.125Z,24.00
2018-06-09T12:45:55.401Z,23.70
2018-06-09T12:48:24.319Z,22.80
2018-06-09T12:50:52.844Z,22.80
2018-06-09T12:53:21.006Z,23.20
2018-06-09T12:55:50.147Z,22.30
2018-06-09T12:58:18.245Z,24.30
2018-06-09T13:00:46.368Z,25.60
2018-06-09T13:03:15.284Z,25.90
2018-06-09T13:05:44.507Z,28.20
2018-06-09T13:08:12.593Z,27.70
2018-06-09T13:10:40.724Z,28.50
2018-06-09T13:13:08.865Z,28.40
2018-06-09T13:15:39.077Z,28.70
2018-06-09T13:18:07.213Z,29.50
2018-06-09T13:20:38.751Z,29.20
2018-06-09T13:23:07.912Z,29.20
2018-06-09T13:25:44.559Z,29.00
2018-06-09T13:28:22.532Z,27.60
2018-06-09T13:30:51.102Z,30.00
2018-06-09T13:33:26.016Z,27.90
2018-06-09T13:35:58.535Z,28.90
2018-06-09T13:38:27.300Z,30.10
2018-06-09T13:40:57.586Z,32.90
2018-06-09T13:43:28.174Z,33.90
2018-06-09T13:45:56.425Z,32.80
2018-06-09T13:51:06.829Z,32.80
2018-06-09T13:53:35.313Z,35.90
2018-06-09T13:56:03.484Z,40.00
2018-06-09T13:58:31.834Z,37.10
2018-06-09T14:01:00.055Z,39.30
2018-06-09T14:03:28.209Z,40.60
2018-06-09T14:05:59.275Z,42.20
2018-06-09T14:08:27.442Z,44.70
2018-06-09T14:10:55.617Z,40.60
2018-06-09T14:13:23.820Z,41.20
2018-06-09T14:15:51.913Z,39.50
2018-06-09T14:18:20.100Z,41.10
2018-06-09T14:20:50.028Z,43.80
2018-06-09T14:23:18.217Z,43.00
2018-06-09T14:25:46.418Z,42.40
2018-06-09T14:28:15.465Z,45.70
2018-06-09T14:30:45.530Z,48.70
2018-06-09T14:33:14.491Z,46.50
2018-06-09T14:35:43.419Z,46.40
2018-06-09T14:38:12.342Z,46.90
2018-06-09T14:40:44.269Z,48.40
2018-06-09T14:43:12.536Z,47.80
2018-06-09T14:45:42.704Z,47.60
2018-06-09T14:48:10.887Z,49.10
2018-06-09T14:50:39.877Z,50.80
2018-06-09T14:53:08.040Z,51.60
2018-06-09T14:55:39.762Z,52.00
2018-06-09T14:58:09.072Z,55.80
2018-06-09T15:00:40.669Z,55.70
2018-06-09T15:03:09.794Z,56.50
2018-06-09T15:05:37.910Z,54.50
2018-06-09T15:08:07.545Z,56.30
2018-06-09T15:10:35.657Z,56.30
2018-06-09T15:13:03.775Z,56.10
2018-06-09T15:15:33.864Z,57.50
2018-06-09T15:18:01.987Z,56.90
2018-06-09T15:20:30.106Z,56.50
2018-06-09T15:22:58.234Z,53.90
2018-06-09T15:25:26.352Z,56.00
2018-06-09T15:27:54.488Z,54.50
2018-06-09T15:30:23.456Z,56.80
2018-06-09T15:32:51.590Z,57.60
2018-06-09T15:35:20.888Z,55.90
2018-06-09T15:37:49.002Z,53.70
2018-06-09T15:40:18.112Z,53.00
2018-06-09T15:42:46.309Z,52.50
2018-06-09T15:45:14.444Z,53.30
2018-06-09T15:47:43.337Z,53.50
2018-06-09T15:50:11.475Z,53.50
2018-06-09T15:52:40.358Z,54.50
2018-06-09T15:55:08.495Z,53.10
2018-06-09T15:57:37.580Z,53.00
2018-06-09T16:00:05.722Z,53.00
2018-06-09T16:02:34.707Z,54.40
2018-06-09T16:05:02.828Z,53.70
2018-06-09T16:07:31.420Z,54.00
2018-06-09T16:09:59.556Z,52.90
2018-06-09T16:12:28.468Z,52.80
2018-06-09T16:14:57.419Z,52.70
2018-06-09T16:17:26.780Z,54.00
2018-06-09T16:19:54.874Z,53.20
2018-06-09T16:22:23.008Z,51.10
2018-06-09T16:24:51.184Z,51.10
2018-06-09T16:27:19.426Z,51.10
2018-06-09T16:29:47.553Z,54.60
2018-06-09T16:32:15.917Z,54.30
2018-06-09T16:34:44.038Z,54.40
2018-06-09T16:37:12.977Z,53.60
2018-06-09T16:39:41.554Z,53.50
2018-06-09T16:42:09.705Z,48.80
2018-06-09T16:44:37.822Z,47.50
2018-06-09T16:47:06.017Z,47.70
2018-06-09T16:49:34.177Z,45.60
2018-06-09T16:52:02.356Z,44.90
2018-06-09T16:54:30.492Z,43.70
2018-06-09T16:56:59.359Z,48.40
2018-06-09T16:59:28.244Z,48.90
2018-06-09T17:01:58.393Z,48.80
2018-06-09T17:04:28.333Z,47.50
2018-06-09T17:06:57.326Z,47.40
2018-06-09T17:09:26.286Z,51.80
2018-06-09T17:11:55.295Z,49.30
2018-06-09T17:14:23.678Z,49.00
2018-06-09T17:16:52.165Z,46.80
2018-06-09T17:19:20.288Z,49.30
2018-06-09T17:21:49.217Z,46.20
2018-06-09T17:24:17.352Z,46.30
2018-06-09T17:26:45.481Z,50.90
2018-06-09T17:29:13.749Z,53.20
2018-06-09T17:31:43.102Z,54.60
2018-06-09T17:34:11.216Z,54.70
2018-06-09T17:36:40.401Z,53.90
2018-06-09T17:39:08.569Z,55.90
2018-06-09T17:41:37.571Z,55.50
2018-06-09T17:44:06.589Z,55.50
2018-06-09T17:46:34.956Z,56.60
2018-06-09T17:49:03.997Z,56.50
2018-06-09T17:51:32.943Z,55.50
2018-06-09T17:54:01.356Z,53.90
2018-06-09T17:56:29.472Z,51.50
2018-06-09T17:58:58.035Z,52.00
2018-06-09T18:01:26.174Z,52.10
2018-06-09T18:03:54.358Z,52.20
2018-06-09T18:06:22.562Z,50.60
2018-06-09T18:08:50.727Z,50.40
2018-06-09T18:11:18.875Z,48.60
2018-06-09T18:13:47.931Z,46.50
2018-06-09T18:16:16.118Z,46.30
2018-06-09T18:18:44.236Z,45.90
2018-06-09T18:21:12.416Z,47.80
2018-06-09T18:23:40.519Z,49.00
2018-06-09T18:26:10.213Z,47.90
2018-06-09T18:28:38.366Z,47.30
2018-06-09T18:31:06.495Z,46.90
2018-06-09T18:33:34.733Z,46.30
2018-06-09T18:36:03.777Z,48.40
2018-06-09T18:38:31.942Z,46.60
2018-06-09T18:41:00.095Z,47.70
2018-06-09T18:43:29.384Z,50.20
2018-06-09T18:45:57.512Z,50.30
2018-06-09T18:48:25.638Z,49.30
2018-06-09T18:50:53.778Z,51.30
2018-06-09T18:53:21.916Z,52.10
2018-06-09T18:55:50.170Z,54.30
2018-06-09T18:58:18.307Z,56.30
2018-06-09T19:00:46.546Z,57.50
2018-06-09T19:03:15.478Z,60.10
2018-06-09T19:05:43.759Z,62.10
2018-06-09T19:08:12.761Z,62.00
2018-06-09T19:10:40.916Z,64.20
2018-06-09T19:13:09.391Z,66.10
2018-06-09T19:15:37.632Z,67.40
2018-06-09T19:18:05.769Z,61.00
2018-06-09T19:20:36.359Z,63.30
2018-06-09T19:23:04.777Z,62.90
2018-06-09T19:25:33.753Z,70.00
2018-06-09T19:28:01.873Z,69.20
2018-06-09T19:30:31.388Z,70.60
2018-06-09T19:32:59.501Z,71.00
2018-06-09T19:35:27.686Z,71.60
2018-06-09T19:38:53.927Z,68.20
2018-06-09T19:41:22.840Z,69.10
2018-06-09T19:43:51.729Z,70.10
2018-06-09T19:46:19.968Z,70.20
2018-06-09T19:48:48.108Z,73.30
2018-06-09T19:51:17.020Z,74.60
2018-06-09T19:53:45.464Z,75.50
2018-06-09T19:56:15.350Z,78.20
2018-06-09T19:58:44.249Z,77.70
2018-06-09T20:01:13.556Z,78.30
2018-06-09T20:03:42.460Z,80.90
2018-06-09T20:06:10.763Z,80.90
2018-06-09T20:08:38.868Z,84.10
2018-06-09T20:11:07.046Z,81.30
2018-06-09T20:13:35.178Z,83.90
2018-06-09T20:16:04.468Z,84.90
2018-06-09T20:18:33.011Z,85.80
2018-06-09T20:21:01.950Z,90.00
2018-06-09T20:23:30.093Z,89.50
2018-06-09T20:25:58.342Z,89.70
2018-06-09T20:28:26.492Z,90.80
2018-06-09T20:30:54.680Z,91.50
2018-06-09T20:33:22.945Z,91.90
2018-06-09T20:35:51.078Z,92.10
2018-06-09T20:38:19.247Z,90.10
2018-06-09T20:40:47.364Z,91.20
2018-06-09T20:43:15.530Z,93.20
2018-06-09T20:45:44.768Z,93.20
2018-06-09T20:48:13.692Z,94.00
2018-06-09T20:50:41.851Z,94.00
2018-06-09T20:53:09.964Z,93.70
2018-06-09T20:55:38.094Z,94.00
2018-06-09T20:58:06.212Z,93.70
2018-06-09T21:00:34.371Z,92.80
2018-06-09T21:03:02.567Z,92.50
2018-06-09T21:05:30.775Z,94.50
2018-06-09T21:07:59.697Z,94.90
2018-06-09T21:10:27.844Z,95.40
2018-06-09T21:12:56.743Z,95.20
2018-06-09T21:15:28.270Z,95.50
2018-06-09T21:17:57.427Z,95.50
2018-06-09T21:20:25.575Z,95.40
2018-06-09T21:22:54.868Z,93.70
2018-06-09T21:25:23.774Z,93.90
2018-06-09T21:27:52.670Z,93.70
2018-06-09T21:30:20.823Z,93.90
2018-06-09T21:32:50.107Z,93.10
2018-06-09T21:38:44.624Z,91.40
2018-06-09T21:41:16.338Z,91.60
2018-06-09T21:43:44.991Z,91.00
2018-06-09T21:46:13.912Z,90.30
2018-06-09T21:48:42.058Z,90.60
2018-06-09T21:51:11.819Z,91.00
2018-06-09T21:53:39.949Z,92.00
2018-06-09T21:56:15.021Z,92.10
2018-06-09T21:58:44.760Z,92.70
2018-06-09T22:01:12.966Z,93.00
2018-06-09T22:03:43.042Z,92.30
2018-06-09T22:06:12.159Z,92.70
2018-06-09T22:08:41.466Z,93.00
2018-06-09T22:11:11.630Z,93.00
2018-06-09T22:13:40.682Z,92.90
2018-06-09T22:16:10.788Z,93.20
2018-06-09T22:18:39.324Z,92.10
2018-06-09T22:21:08.253Z,91.80
2018-06-09T22:23:36.426Z,91.40
2018-06-09T22:26:04.892Z,90.90
2018-06-09T22:28:33.057Z,90.90
2018-06-09T22:31:03.042Z,90.90
2018-06-09T22:33:31.153Z,91.50
2018-06-09T22:36:01.475Z,91.40
2018-06-09T22:38:29.694Z,91.60
2018-06-09T22:40:58.954Z,90.90
2018-06-09T22:43:27.886Z,90.00
2018-06-09T22:45:57.921Z,90.10
2018-06-09T22:48:26.971Z,90.60
2018-06-09T22:50:55.106Z,90.90
2018-06-09T22:53:23.236Z,90.80
2018-06-09T22:55:55.479Z,91.10
2018-06-09T22:58:24.057Z,90.90
2018-06-09T23:00:52.195Z,91.50
2018-06-09T23:03:20.335Z,91.50
2018-06-09T23:05:48.456Z,91.80
2018-06-09T23:08:16.988Z,91.80
2018-06-09T23:10:46.595Z,91.30
2018-06-09T23:13:14.760Z,91.10
2018-06-09T23:15:47.439Z,90.80
2018-06-09T23:18:19.235Z,90.40
2018-06-09T23:20:48.129Z,91.10
2018-06-09T23:23:16.358Z,90.30
2018-06-09T23:25:44.619Z,90.80
2018-06-09T23:28:14.047Z,91.40
2018-06-09T23:30:42.203Z,92.20
2018-06-09T23:33:10.903Z,93.30
2018-06-09T23:35:42.209Z,93.50
2018-06-09T23:38:10.360Z,93.10
2018-06-09T23:40:39.248Z,93.50
2018-06-09T23:43:07.377Z,93.70
2018-06-09T23:45:35.567Z,94.70
2018-06-09T23:48:03.707Z,95.90
2018-06-09T23:50:31.893Z,96.30
2018-06-09T23:53:00.009Z,96.60
2018-06-09T23:55:28.250Z,97.60
2018-06-09T23:57:56.412Z,96.80
